Time;durP1;ratioP1;P1;durP2;ratioP2;P2;SDS_P1;SDS_P2;PMS_P1;PMS_P2;Temp;Humidity;BMP_temperature;BMP_pressure;BME280_temperature;BME280_humidity;BME280_pressure;Samples;Min_cycle;Max_cycle;Signal;HPM_P1;HPM_P2
2021/03/30 00:01:54;;;;;;;16.02;10.10;;;8.60;99.90;;;;;;5014209;28;20046;-69
2021/03/30 00:04:21;;;;;;;13.90;10.25;;;8.50;99.90;;;;;;5019386;28;20140;-69
2021/03/30 00:06:48;;;;;;;11.57;10.32;;;8.50;99.90;;;;;;5020932;28;20072;-69
2021/03/30 00:09:17;;;;;;;12.38;10.43;;;8.50;99.90;;;;;;5018434;28;20148;-69
2021/03/30 00:11:44;;;;;;;11.57;10.30;;;8.40;99.90;;;;;;5015171;28;20054;-69
2021/03/30 00:14:11;;;;;;;14.80;10.85;;;8.40;99.90;;;;;;5017015;28;20049;-69
2021/03/30 00:16:38;;;;;;;11.52;10.38;;;8.40;99.90;;;;;;5026197;28;20400;-67
2021/03/30 00:19:07;;;;;;;15.32;10.73;;;8.40;99.90;;;;;;5030386;28;20053;-68
2021/03/30 00:21:34;;;;;;;12.73;10.50;;;8.30;99.90;;;;;;5030689;28;20076;-68
2021/03/30 00:24:01;;;;;;;12.27;10.98;;;8.30;99.90;;;;;;5030434;28;20087;-68
2021/03/30 00:26:34;;;;;;;11.45;10.27;;;8.20;99.90;;;;;;5021376;28;20487;-68
2021/03/30 00:29:05;;;;;;;12.32;10.60;;;8.20;99.90;;;;;;5029317;28;20067;-68
2021/03/30 00:31:33;;;;;;;12.15;10.48;;;8.20;99.90;;;;;;5030543;28;20419;-68
2021/03/30 00:34:00;;;;;;;17.48;13.52;;;8.20;99.90;;;;;;5014599;28;20053;-68
2021/03/30 00:36:26;;;;;;;18.08;13.52;;;8.20;99.90;;;;;;5013743;28;20522;-68
2021/03/30 00:38:53;;;;;;;17.23;13.38;;;8.20;99.90;;;;;;5024751;28;20057;-68
2021/03/30 00:41:20;;;;;;;16.27;12.98;;;8.20;99.90;;;;;;5024329;28;20049;-68
2021/03/30 00:43:47;;;;;;;18.63;11.73;;;8.10;99.90;;;;;;5024224;28;20081;-68
2021/03/30 00:46:18;;;;;;;13.55;11.73;;;8.10;99.90;;;;;;5015784;28;20057;-68
2021/03/30 00:48:50;;;;;;;11.48;10.40;;;8.10;99.90;;;;;;5017251;28;20046;-68
2021/03/30 00:51:19;;;;;;;12.77;10.70;;;8.00;99.90;;;;;;5032217;28;20064;-68
2021/03/30 00:53:59;;;;;;;13.82;10.52;;;8.00;99.90;;;;;;5033746;28;20053;-68
2021/03/30 00:56:31;;;;;;;11.98;10.27;;;8.00;99.90;;;;;;5020708;28;20038;-68
2021/03/30 00:59:00;;;;;;;13.35;10.32;;;8.00;99.90;;;;;;5031871;28;20145;-68
2021/03/30 01:01:29;;;;;;;12.27;10.25;;;8.00;99.90;;;;;;5025292;28;20140;-68
2021/03/30 01:03:56;;;;;;;14.57;11.38;;;8.00;99.90;;;;;;5032959;28;20042;-68
2021/03/30 01:06:24;;;;;;;12.05;10.73;;;7.90;99.90;;;;;;5032591;28;20661;-68
2021/03/30 01:09:15;;;;;;;19.13;11.00;;;7.90;99.90;;;;;;5034075;28;20041;-68
2021/03/30 01:12:19;;;;;;;16.27;10.50;;;7.80;99.90;;;;;;5025958;28;20045;-68
2021/03/30 01:14:52;;;;;;;13.50;10.52;;;7.80;99.90;;;;;;5032049;28;20657;-68
2021/03/30 01:17:29;;;;;;;11.43;10.30;;;7.70;99.90;;;;;;5031594;28;20072;-68
2021/03/30 01:20:05;;;;;;;13.35;10.73;;;7.70;99.90;;;;;;5032164;28;20060;-68
2021/03/30 01:23:07;;;;;;;11.45;10.25;;;7.60;99.90;;;;;;5015527;28;20404;-68
2021/03/30 01:25:38;;;;;;;12.15;10.75;;;7.60;99.90;;;;;;5029457;28;20099;-68
2021/03/30 01:28:20;;;;;;;12.88;10.63;;;7.60;99.90;;;;;;5031705;28;20124;-68
2021/03/30 01:30:48;;;;;;;11.52;10.43;;;7.60;99.90;;;;;;5031590;28;20045;-68
2021/03/30 01:33:20;;;;;;;12.45;11.18;;;7.60;99.90;;;;;;5026300;28;20089;-68
2021/03/30 01:35:51;;;;;;;13.32;10.40;;;7.50;99.90;;;;;;5031403;28;20263;-68
2021/03/30 01:38:20;;;;;;;12.65;10.77;;;7.50;99.90;;;;;;5031808;28;20045;-68
2021/03/30 01:40:53;;;;;;;12.07;10.75;;;7.50;99.90;;;;;;5029242;28;20504;-68
2021/03/30 01:43:22;;;;;;;13.27;10.55;;;7.40;99.90;;;;;;5029735;28;20045;-68
2021/03/30 01:45:54;;;;;;;14.45;10.70;;;7.40;99.90;;;;;;5032344;28;20508;-68
2021/03/30 01:48:22;;;;;;;12.88;10.68;;;7.30;99.90;;;;;;5032826;28;20106;-68
2021/03/30 01:50:52;;;;;;;16.27;11.43;;;7.30;99.90;;;;;;5030838;28;20045;-68
2021/03/30 01:53:22;;;;;;;11.57;10.38;;;7.30;99.90;;;;;;5032636;28;20053;-68
2021/03/30 01:55:53;;;;;;;13.57;10.48;;;7.30;99.90;;;;;;5029769;28;20471;-68
2021/03/30 01:58:21;;;;;;;11.60;10.43;;;7.30;99.90;;;;;;5028267;28;20045;-69
2021/03/30 02:00:50;;;;;;;15.73;10.70;;;7.20;99.90;;;;;;5031319;28;20128;-69
2021/03/30 02:03:19;;;;;;;12.63;10.60;;;7.20;99.90;;;;;;5030506;28;20053;-69
2021/03/30 02:05:46;;;;;;;11.77;10.48;;;7.20;99.90;;;;;;5024451;28;20108;-69
2021/03/30 02:08:14;;;;;;;11.82;10.48;;;7.20;99.90;;;;;;5025491;28;20555;-67
2021/03/30 02:13:20;;;;;;;13.82;10.40;;;7.10;99.90;;;;;;5030626;28;20099;-67
2021/03/30 02:15:47;;;;;;;11.43;10.27;;;7.00;99.90;;;;;;5034334;28;20068;-68
2021/03/30 02:18:17;;;;;;;13.80;10.55;;;7.00;99.90;;;;;;5030446;28;20041;-68
2021/03/30 02:20:50;;;;;;;13.55;11.02;;;7.00;99.90;;;;;;5031895;28;20046;-68
2021/03/30 02:23:23;;;;;;;12.02;10.40;;;7.00;99.90;;;;;;5030100;28;20115;-67
2021/03/30 02:25:55;;;;;;;14.90;10.18;;;6.90;99.90;;;;;;5022408;28;20072;-67
2021/03/30 02:28:35;;;;;;;15.07;10.30;;;7.00;99.90;;;;;;5031150;28;20053;-67
2021/03/30 02:31:05;;;;;;;14.07;10.23;;;6.90;99.90;;;;;;5030440;28;20103;-67
2021/03/30 02:33:33;;;;;;;13.25;10.50;;;6.90;99.90;;;;;;5044884;28;20053;-67
2021/03/30 02:36:02;;;;;;;13.63;11.27;;;6.90;99.90;;;;;;5031317;28;20593;-67
2021/03/30 02:38:31;;;;;;;12.07;10.65;;;6.80;99.90;;;;;;5018108;28;20059;-67
2021/03/30 02:40:59;;;;;;;16.02;10.18;;;6.80;99.90;;;;;;5029885;28;20439;-67
2021/03/30 02:43:27;;;;;;;17.23;11.35;;;6.70;99.90;;;;;;5030955;28;20099;-67
2021/03/30 02:45:54;;;;;;;14.10;10.40;;;6.70;99.90;;;;;;5021467;28;20077;-67
2021/03/30 02:48:22;;;;;;;16.77;11.57;;;6.60;99.90;;;;;;5029241;28;20041;-67
2021/03/30 02:50:50;;;;;;;16.85;10.93;;;6.60;99.90;;;;;;5031222;28;20095;-67
2021/03/30 02:53:18;;;;;;;13.98;10.20;;;6.60;99.90;;;;;;5045914;28;20749;-67
2021/03/30 02:55:48;;;;;;;12.38;10.63;;;6.60;99.90;;;;;;5031475;28;20053;-67
2021/03/30 02:58:15;;;;;;;15.40;11.05;;;6.50;99.90;;;;;;5044824;28;20068;-67
2021/03/30 03:00:44;;;;;;;11.75;10.07;;;6.60;99.90;;;;;;5030228;28;20127;-67
2021/03/30 03:03:13;;;;;;;13.05;9.93;;;6.60;99.90;;;;;;5029903;28;20129;-67
2021/03/30 03:05:43;;;;;;;13.55;9.93;;;6.60;99.90;;;;;;5030157;28;20377;-67
2021/03/30 03:08:10;;;;;;;17.90;10.85;;;6.60;99.90;;;;;;5030847;28;20050;-67
2021/03/30 03:10:37;;;;;;;14.93;10.63;;;6.60;99.90;;;;;;5029544;28;20123;-67
2021/03/30 03:13:11;;;;;;;13.70;10.35;;;6.50;99.90;;;;;;5030052;28;20128;-67
2021/03/30 03:15:40;;;;;;;13.70;10.32;;;6.50;99.90;;;;;;5026410;28;20053;-67
2021/03/30 03:18:09;;;;;;;12.50;10.93;;;6.50;99.90;;;;;;5011544;28;20050;-67
2021/03/30 03:20:37;;;;;;;17.23;10.73;;;6.40;99.90;;;;;;5030791;28;20495;-67
2021/03/30 03:23:04;;;;;;;13.65;10.80;;;6.40;99.90;;;;;;5031430;28;20058;-67
2021/03/30 03:25:32;;;;;;;14.68;11.63;;;6.40;99.90;;;;;;5027640;28;20049;-67
2021/03/30 03:28:02;;;;;;;14.07;10.30;;;6.40;99.90;;;;;;5026269;28;20077;-67
2021/03/30 03:30:31;;;;;;;15.52;10.77;;;6.40;99.90;;;;;;5028599;28;20053;-67
2021/03/30 03:33:12;;;;;;;15.15;11.38;;;6.40;99.90;;;;;;5043757;28;20103;-67
2021/03/30 03:35:59;;;;;;;12.52;11.30;;;6.40;99.90;;;;;;5030669;28;20082;-67
2021/03/30 03:38:26;;;;;;;12.88;11.18;;;6.30;99.90;;;;;;5029413;28;20206;-68
2021/03/30 03:40:53;;;;;;;12.18;10.93;;;6.30;99.90;;;;;;5031366;28;20124;-68
2021/03/30 03:43:20;;;;;;;13.20;11.57;;;6.30;99.90;;;;;;5029008;28;20053;-68
2021/03/30 03:45:47;;;;;;;11.60;10.32;;;6.30;99.90;;;;;;5027623;28;20045;-67
2021/03/30 03:48:13;;;;;;;17.35;11.50;;;6.30;99.90;;;;;;5029253;28;20057;-67
2021/03/30 03:50:41;;;;;;;16.40;11.00;;;6.20;99.90;;;;;;5029427;28;20046;-68
2021/03/30 03:53:10;;;;;;;14.18;11.27;;;6.20;99.90;;;;;;5030078;28;20076;-67
2021/03/30 03:55:40;;;;;;;14.10;10.90;;;6.20;99.90;;;;;;5027968;28;20048;-67
2021/03/30 03:58:09;;;;;;;14.32;10.95;;;6.20;99.90;;;;;;5011102;28;20049;-67
2021/03/30 04:00:38;;;;;;;14.82;10.05;;;6.10;99.90;;;;;;5029575;28;20081;-67
2021/03/30 04:03:23;;;;;;;13.13;10.82;;;6.10;99.90;;;;;;5019719;28;20123;-67
2021/03/30 04:06:09;;;;;;;13.65;11.65;;;6.00;99.90;;;;;;5015220;28;20046;-67
2021/03/30 04:08:50;;;;;;;15.98;11.68;;;6.00;99.90;;;;;;5041382;28;20132;-67
2021/03/30 04:11:17;;;;;;;11.73;9.93;;;6.00;99.90;;;;;;5020255;28;20491;-67
2021/03/30 04:13:45;;;;;;;13.30;10.25;;;6.00;99.90;;;;;;5027983;28;20081;-67
2021/03/30 04:16:13;;;;;;;12.98;10.20;;;5.90;99.90;;;;;;5031097;28;20077;-69
2021/03/30 04:18:41;;;;;;;14.93;11.82;;;5.90;99.90;;;;;;5028386;28;20045;-67
2021/03/30 04:21:17;;;;;;;15.48;11.00;;;5.90;99.90;;;;;;5040376;28;20045;-67
2021/03/30 04:23:47;;;;;;;17.50;11.10;;;5.90;99.90;;;;;;5028784;28;20054;-67
2021/03/30 04:26:14;;;;;;;14.18;11.20;;;5.90;99.90;;;;;;5031221;28;20088;-68
2021/03/30 04:28:41;;;;;;;14.98;11.73;;;5.90;99.90;;;;;;5032426;28;20060;-67
2021/03/30 04:31:08;;;;;;;14.45;10.82;;;5.90;99.90;;;;;;5031639;28;20041;-68
2021/03/30 04:33:35;;;;;;;15.82;10.77;;;5.80;99.90;;;;;;5034124;28;21049;-68
2021/03/30 04:36:05;;;;;;;14.95;11.00;;;5.80;99.90;;;;;;5028311;28;20042;-68
2021/03/30 04:38:32;;;;;;;11.15;10.00;;;5.80;99.90;;;;;;5034208;28;20496;-68
2021/03/30 04:40:59;;;;;;;12.80;10.50;;;5.70;99.90;;;;;;5034111;28;20125;-68
2021/03/30 04:43:25;;;;;;;13.77;11.25;;;5.70;99.90;;;;;;5033945;28;20146;-68
2021/03/30 04:45:52;;;;;;;14.60;11.23;;;5.70;99.90;;;;;;5032725;28;20583;-68
2021/03/30 04:48:19;;;;;;;11.57;10.30;;;5.70;99.90;;;;;;5033398;28;20119;-68
2021/03/30 04:50:47;;;;;;;15.80;11.63;;;5.70;99.90;;;;;;5035964;28;20060;-68
2021/03/30 04:53:14;;;;;;;13.25;11.38;;;5.70;99.90;;;;;;5033060;28;20350;-68
2021/03/30 04:55:41;;;;;;;12.80;10.95;;;5.60;99.90;;;;;;5034873;28;20069;-68
2021/03/30 04:58:08;;;;;;;14.48;10.43;;;5.60;99.90;;;;;;5021167;28;20054;-68
2021/03/30 05:00:35;;;;;;;13.27;11.13;;;5.50;99.90;;;;;;5034451;28;20057;-69
2021/03/30 05:03:03;;;;;;;12.73;10.68;;;5.50;99.90;;;;;;5034197;28;20048;-68
2021/03/30 05:05:29;;;;;;;13.82;11.27;;;5.50;99.90;;;;;;5034986;28;20132;-68
2021/03/30 05:07:56;;;;;;;14.57;10.98;;;5.60;99.90;;;;;;5036030;28;20096;-68
2021/03/30 05:10:25;;;;;;;14.60;11.00;;;5.60;99.90;;;;;;5034860;28;20059;-68
2021/03/30 05:12:53;;;;;;;14.95;10.70;;;5.60;99.90;;;;;;5036378;28;20141;-68
2021/03/30 05:15:21;;;;;;;14.25;11.25;;;5.60;99.90;;;;;;5044304;28;20487;-68
2021/03/30 05:17:48;;;;;;;12.35;10.43;;;5.60;99.90;;;;;;5035825;28;20136;-68
2021/03/30 05:20:16;;;;;;;14.50;10.98;;;5.60;99.90;;;;;;5039465;28;20053;-68
2021/03/30 05:22:43;;;;;;;16.45;11.57;;;5.70;99.90;;;;;;5028530;28;20034;-68
2021/03/30 05:25:11;;;;;;;13.35;11.30;;;5.70;99.90;;;;;;5040004;28;20576;-68
2021/03/30 05:27:38;;;;;;;15.23;11.30;;;5.80;99.90;;;;;;5037731;28;20045;-68
2021/03/30 05:30:09;;;;;;;13.35;10.50;;;5.80;99.90;;;;;;5061997;28;20056;-68
2021/03/30 05:32:37;;;;;;;14.25;11.00;;;5.90;99.90;;;;;;5043694;28;20045;-68
2021/03/30 05:35:07;;;;;;;12.57;10.60;;;6.00;99.90;;;;;;5022404;28;20042;-68
2021/03/30 05:37:41;;;;;;;15.85;10.57;;;6.00;99.90;;;;;;5020189;28;20755;-68
2021/03/30 05:40:11;;;;;;;14.88;10.93;;;6.10;99.90;;;;;;5039688;28;20076;-68
2021/03/30 05:42:42;;;;;;;15.52;11.48;;;6.20;99.90;;;;;;5017260;28;20041;-69
2021/03/30 05:45:12;;;;;;;13.75;11.25;;;6.20;99.90;;;;;;5018383;28;20045;-69
2021/03/30 05:47:39;;;;;;;14.82;10.88;;;6.30;99.90;;;;;;5024737;28;20443;-68
2021/03/30 05:50:13;;;;;;;14.65;11.23;;;6.40;99.90;;;;;;5035925;28;20388;-69
2021/03/30 05:55:30;;;;;;;20.20;12.25;;;6.60;99.90;;;;;;5040688;28;20053;-69
2021/03/30 05:58:03;;;;;;;14.85;11.82;;;6.70;99.90;;;;;;5039700;28;20053;-69
2021/03/30 06:00:35;;;;;;;15.63;11.70;;;6.70;99.90;;;;;;5034578;28;20045;-68
2021/03/30 06:03:05;;;;;;;16.52;11.00;;;6.80;99.90;;;;;;5033961;28;20091;-68
2021/03/30 06:05:33;;;;;;;17.17;11.02;;;6.90;99.90;;;;;;5029508;28;20072;-68
2021/03/30 06:08:02;;;;;;;22.20;11.48;;;7.00;99.90;;;;;;5037085;28;20061;-67
2021/03/30 06:10:31;;;;;;;16.27;11.20;;;7.10;99.90;;;;;;5031901;28;20060;-68
2021/03/30 06:13:00;;;;;;;18.63;12.20;;;7.20;99.90;;;;;;5015807;28;20057;-68
2021/03/30 06:15:33;;;;;;;16.60;11.38;;;7.20;99.90;;;;;;5035439;28;20103;-68
2021/03/30 06:18:15;;;;;;;14.13;11.15;;;7.30;99.90;;;;;;5035250;28;20045;-68
2021/03/30 06:20:42;;;;;;;17.35;11.43;;;7.40;99.90;;;;;;5048141;28;20042;-68
2021/03/30 06:23:10;;;;;;;13.70;11.40;;;7.50;99.90;;;;;;5024962;28;20052;-68
2021/03/30 06:25:41;;;;;;;20.85;13.32;;;7.60;99.90;;;;;;5024811;28;20125;-68
2021/03/30 06:28:20;;;;;;;14.70;11.90;;;7.70;99.90;;;;;;5022929;28;20045;-68
2021/03/30 06:31:05;;;;;;;14.60;10.73;;;7.70;99.90;;;;;;5017254;28;20046;-68
2021/03/30 06:33:59;;;;;;;15.13;10.77;;;7.80;99.90;;;;;;5020404;28;20076;-67
2021/03/30 06:36:31;;;;;;;15.40;11.07;;;7.90;99.90;;;;;;5024334;28;20046;-67
2021/03/30 06:39:02;;;;;;;27.17;11.93;;;8.00;99.90;;;;;;5026665;28;20101;-68
2021/03/30 06:42:19;;;;;;;17.42;11.98;;;8.10;99.90;;;;;;5031634;28;20064;-68
2021/03/30 06:44:32;;;;;;;17.40;12.02;;;8.10;99.90;;;;;;5034790;28;20068;-69
2021/03/30 06:47:17;;;;;;;20.17;11.40;;;8.20;99.90;;;;;;5035698;28;20129;-67
2021/03/30 06:49:55;;;;;;;17.73;11.85;;;8.30;99.90;;;;;;5033102;28;20077;-68
2021/03/30 06:52:26;;;;;;;18.27;13.38;;;8.40;99.90;;;;;;5029422;28;20099;-69
2021/03/30 06:54:57;;;;;;;14.55;12.43;;;8.40;99.90;;;;;;5028792;28;20133;-67
2021/03/30 06:57:38;;;;;;;16.10;12.43;;;8.50;99.90;;;;;;5031273;28;20137;-69
2021/03/30 07:00:06;;;;;;;16.77;11.57;;;8.70;99.90;;;;;;5026929;28;20056;-66
2021/03/30 07:02:34;;;;;;;15.27;11.70;;;8.80;99.90;;;;;;5033238;28;20111;-68
2021/03/30 07:05:01;;;;;;;12.95;11.63;;;8.90;99.90;;;;;;5032451;28;20176;-68
2021/03/30 07:07:28;;;;;;;20.35;12.75;;;9.00;99.90;;;;;;5031719;28;20487;-68
2021/03/30 07:09:56;;;;;;;19.05;12.27;;;9.10;99.90;;;;;;5034761;28;20485;-69
2021/03/30 07:12:24;;;;;;;14.20;11.63;;;9.20;99.90;;;;;;5035174;28;20164;-69
2021/03/30 07:14:51;;;;;;;13.82;11.77;;;9.30;99.90;;;;;;5038666;28;20433;-68
2021/03/30 07:17:27;;;;;;;18.33;13.05;;;9.40;99.90;;;;;;5032622;28;20057;-68
2021/03/30 07:19:56;;;;;;;16.20;12.60;;;9.50;99.90;;;;;;5033174;28;20058;-68
2021/03/30 07:22:27;;;;;;;16.42;11.68;;;9.60;99.90;;;;;;5032439;28;20050;-68
2021/03/30 07:25:06;;;;;;;14.68;11.90;;;9.70;99.90;;;;;;5032612;28;20061;-68
2021/03/30 07:27:59;;;;;;;17.45;12.85;;;9.80;99.90;;;;;;5031500;28;20413;-69
2021/03/30 07:30:27;;;;;;;14.85;11.70;;;9.90;99.90;;;;;;5030182;28;20539;-69
2021/03/30 07:33:09;;;;;;;16.33;12.52;;;10.00;99.90;;;;;;5030441;28;20129;-69
2021/03/30 07:35:37;;;;;;;14.50;11.93;;;10.20;99.90;;;;;;5029775;28;20683;-69
2021/03/30 07:38:19;;;;;;;13.70;11.88;;;10.30;99.90;;;;;;5025105;28;20092;-68
2021/03/30 07:40:47;;;;;;;17.88;12.70;;;10.40;99.90;;;;;;5030982;28;20124;-68
2021/03/30 07:43:25;;;;;;;17.83;13.07;;;10.60;99.90;;;;;;5030666;28;20980;-68
2021/03/30 07:45:56;;;;;;;15.65;12.27;;;10.70;99.90;;;;;;5030165;28;20087;-68
2021/03/30 07:48:25;;;;;;;14.00;11.82;;;10.80;99.90;;;;;;5029999;28;20045;-68
2021/03/30 07:51:00;;;;;;;15.15;12.70;;;11.00;99.90;;;;;;5032432;28;20435;-68
2021/03/30 07:53:51;;;;;;;17.30;12.57;;;11.20;99.90;;;;;;5033251;28;20053;-68
2021/03/30 07:56:24;;;;;;;16.17;13.33;;;11.40;99.90;;;;;;5027635;28;20056;-68
2021/03/30 07:58:56;;;;;;;17.08;12.63;;;11.40;99.90;;;;;;5034383;28;20563;-68
2021/03/30 08:01:25;;;;;;;16.45;12.32;;;11.50;99.90;;;;;;5034321;28;20053;-68
2021/03/30 08:03:54;;;;;;;18.63;13.02;;;11.60;99.90;;;;;;5032345;28;20029;-68
2021/03/30 08:06:49;;;;;;;19.95;13.13;;;11.80;99.90;;;;;;5031340;28;20060;-68
2021/03/30 08:09:19;;;;;;;14.23;12.73;;;11.90;99.90;;;;;;5046123;28;20049;-69
2021/03/30 08:11:59;;;;;;;15.95;12.77;;;12.10;99.90;;;;;;5016906;28;20131;-68
2021/03/30 08:14:26;;;;;;;15.68;13.73;;;12.30;99.90;;;;;;5012315;28;20045;-67
2021/03/30 08:17:08;;;;;;;20.27;13.73;;;12.40;99.90;;;;;;4993411;28;20077;-69
2021/03/30 08:19:35;;;;;;;19.20;14.32;;;12.50;99.90;;;;;;5026337;28;20084;-69
2021/03/30 08:22:07;;;;;;;22.58;13.20;;;12.60;99.90;;;;;;5041165;28;20077;-69
2021/03/30 08:24:43;;;;;;;18.40;13.85;;;12.80;99.90;;;;;;5045751;28;20053;-68
2021/03/30 08:27:32;;;;;;;19.75;13.98;;;13.00;99.90;;;;;;5028752;28;20160;-68
2021/03/30 08:29:59;;;;;;;24.08;16.30;;;13.20;99.90;;;;;;5024017;28;20041;-69
2021/03/30 08:32:31;;;;;;;24.02;16.90;;;13.30;99.90;;;;;;5029059;28;20053;-68
2021/03/30 08:35:10;;;;;;;20.27;15.00;;;13.60;99.90;;;;;;5028074;28;20136;-68
2021/03/30 08:37:41;;;;;;;17.90;14.73;;;13.80;99.90;;;;;;5020347;28;20520;-68
2021/03/30 08:40:36;;;;;;;19.08;14.55;;;13.90;99.90;;;;;;5028981;28;20053;-67
2021/03/30 08:43:15;;;;;;;18.00;14.57;;;14.00;99.90;;;;;;5024139;28;20142;-68
2021/03/30 08:45:54;;;;;;;17.80;14.70;;;14.20;99.90;;;;;;5028858;28;20462;-68
2021/03/30 08:48:40;;;;;;;25.30;16.17;;;14.40;99.90;;;;;;5027998;28;20045;-69
2021/03/30 08:51:13;;;;;;;18.48;15.07;;;14.60;99.90;;;;;;5028574;28;20080;-68
2021/03/30 08:53:40;;;;;;;24.00;15.07;;;14.80;99.90;;;;;;5028768;28;20050;-68
2021/03/30 08:56:09;;;;;;;18.73;14.27;;;14.90;99.90;;;;;;5031287;28;20033;-68
2021/03/30 08:58:49;;;;;;;21.60;15.77;;;15.10;99.90;;;;;;5026615;28;20057;-68
2021/03/30 09:01:16;;;;;;;19.63;14.65;;;15.40;99.90;;;;;;5014647;28;20054;-67
2021/03/30 09:03:44;;;;;;;18.02;14.05;;;15.60;99.90;;;;;;5020703;28;20209;-68
2021/03/30 09:06:27;;;;;;;15.68;14.00;;;15.60;99.70;;;;;;5029059;28;20594;-68
2021/03/30 09:08:55;;;;;;;18.17;15.10;;;15.80;99.20;;;;;;5029337;28;20050;-67
2021/03/30 09:11:28;;;;;;;19.52;15.27;;;16.00;98.50;;;;;;5041919;28;20080;-68
2021/03/30 09:13:59;;;;;;;21.75;15.55;;;16.10;97.60;;;;;;5035036;28;20053;-68
2021/03/30 09:16:27;;;;;;;20.35;15.85;;;16.20;96.80;;;;;;5049400;28;20052;-68
2021/03/30 09:19:34;;;;;;;18.70;14.88;;;16.30;95.90;;;;;;5045456;28;20057;-68
2021/03/30 09:22:13;;;;;;;21.88;15.70;;;16.40;95.80;;;;;;5033895;28;20045;-68
2021/03/30 09:27:38;;;;;;;19.48;15.88;;;16.60;95.10;;;;;;5033060;28;20049;-68
2021/03/30 09:30:09;;;;;;;20.67;16.13;;;16.80;94.50;;;;;;5027719;28;20061;-68
2021/03/30 09:32:38;;;;;;;24.65;16.65;;;17.00;93.80;;;;;;5032401;28;20068;-68
2021/03/30 09:35:06;;;;;;;23.02;15.98;;;17.00;92.80;;;;;;5030953;28;20128;-68
2021/03/30 09:37:44;;;;;;;17.42;14.75;;;17.10;92.50;;;;;;5026641;28;20103;-69
2021/03/30 09:40:14;;;;;;;29.23;19.15;;;17.30;91.20;;;;;;5032845;28;20046;-68
2021/03/30 09:42:50;;;;;;;19.98;16.13;;;17.50;90.40;;;;;;5027535;28;20041;-68
2021/03/30 09:45:38;;;;;;;20.00;15.95;;;17.50;88.70;;;;;;5033860;28;20057;-69
2021/03/30 09:48:10;;;;;;;23.08;15.70;;;17.50;87.50;;;;;;5026799;28;20060;-68
2021/03/30 09:50:49;;;;;;;18.92;15.32;;;17.60;87.60;;;;;;5033432;28;20054;-68
2021/03/30 09:53:37;;;;;;;20.17;15.52;;;17.80;87.40;;;;;;5032381;28;20057;-68
2021/03/30 09:56:05;;;;;;;22.33;14.27;;;17.90;86.00;;;;;;5022921;28;20062;-68
2021/03/30 09:58:32;;;;;;;22.08;15.43;;;18.20;84.80;;;;;;5032184;28;20053;-68
2021/03/30 10:00:59;;;;;;;18.30;14.95;;;18.40;85.50;;;;;;5029090;28;20045;-68
2021/03/30 10:03:26;;;;;;;20.58;15.82;;;18.60;83.70;;;;;;5024773;28;20136;-68
2021/03/30 10:05:54;;;;;;;22.88;16.63;;;18.90;82.70;;;;;;5025402;28;20521;-68
2021/03/30 10:08:24;;;;;;;22.70;16.38;;;19.00;81.60;;;;;;5037623;28;20081;-68
2021/03/30 10:10:55;;;;;;;22.63;16.42;;;19.10;81.20;;;;;;5027253;28;20045;-69
2021/03/30 10:13:40;;;;;;;23.67;15.82;;;19.30;80.80;;;;;;5028702;28;20045;-68
2021/03/30 10:16:12;;;;;;;25.60;15.35;;;19.50;79.40;;;;;;5029145;28;20053;-68
2021/03/30 10:18:41;;;;;;;24.85;15.32;;;19.50;78.30;;;;;;5031272;28;20541;-68
2021/03/30 10:21:17;;;;;;;19.70;14.73;;;19.80;77.60;;;;;;5029193;28;20041;-68
2021/03/30 10:23:50;;;;;;;19.50;15.35;;;20.00;76.80;;;;;;5023786;28;20045;-69
2021/03/30 10:26:25;;;;;;;15.73;14.15;;;20.30;74.50;;;;;;5013905;28;20070;-69
2021/03/30 10:28:54;;;;;;;17.23;13.95;;;20.60;73.60;;;;;;5025435;28;20084;-69
2021/03/30 10:31:32;;;;;;;15.52;13.63;;;20.90;72.00;;;;;;5031858;28;20046;-69
2021/03/30 10:33:59;;;;;;;18.00;16.20;;;21.20;71.20;;;;;;5028446;28;20079;-69
2021/03/30 10:36:27;;;;;;;33.92;26.20;;;21.40;69.70;;;;;;5029008;28;20111;-69
2021/03/30 10:39:10;;;;;;;16.65;14.80;;;21.60;67.50;;;;;;5028790;28;20073;-68
2021/03/30 10:41:43;;;;;;;15.40;13.68;;;21.70;67.90;;;;;;5030586;28;20046;-69
2021/03/30 10:44:17;;;;;;;15.25;13.43;;;22.00;66.80;;;;;;5029725;28;20073;-68
2021/03/30 10:46:46;;;;;;;18.40;14.43;;;22.00;65.80;;;;;;5030751;28;20148;-69
2021/03/30 10:49:15;;;;;;;18.95;14.23;;;21.90;65.90;;;;;;5031734;28;20053;-69
2021/03/30 10:51:44;;;;;;;15.27;13.70;;;21.90;65.50;;;;;;5031477;28;20583;-69
2021/03/30 10:54:13;;;;;;;15.00;13.50;;;22.30;65.30;;;;;;5023584;28;20496;-69
2021/03/30 10:56:41;;;;;;;18.42;14.18;;;22.20;64.50;;;;;;5026144;28;20050;-69
2021/03/30 10:59:15;;;;;;;14.65;13.25;;;22.10;64.60;;;;;;5025546;28;20431;-70
2021/03/30 11:01:42;;;;;;;16.15;13.73;;;22.20;64.30;;;;;;5030200;28;20049;-69
2021/03/30 11:04:09;;;;;;;16.27;13.48;;;22.50;63.20;;;;;;5033083;28;20065;-69
2021/03/30 11:06:37;;;;;;;14.57;12.70;;;22.60;62.20;;;;;;5029429;28;20597;-69
2021/03/30 11:09:05;;;;;;;14.25;12.38;;;22.70;62.30;;;;;;5032827;28;20060;-68
2021/03/30 11:11:32;;;;;;;15.30;13.75;;;22.90;62.30;;;;;;5030771;28;20049;-68
2021/03/30 11:13:59;;;;;;;14.73;13.30;;;22.90;61.10;;;;;;5029551;28;20046;-68
2021/03/30 11:16:29;;;;;;;14.82;13.30;;;22.80;60.60;;;;;;5030429;28;20565;-69
2021/03/30 11:19:14;;;;;;;15.88;13.27;;;22.90;60.20;;;;;;5034203;28;20052;-69
2021/03/30 11:21:41;;;;;;;13.80;12.40;;;23.10;59.40;;;;;;5032892;28;20060;-68
2021/03/30 11:24:14;;;;;;;13.80;12.50;;;23.40;59.40;;;;;;5034332;28;20097;-68
2021/03/30 11:26:46;;;;;;;14.05;12.57;;;23.90;58.30;;;;;;5032758;28;20403;-69
2021/03/30 11:29:22;;;;;;;14.05;11.73;;;24.30;56.70;;;;;;5025052;28;20053;-69
2021/03/30 11:39:48;;;;;;;15.15;11.98;;;24.00;56.10;;;;;;5018746;28;20057;-69
2021/03/30 11:42:15;;;;;;;13.27;12.02;;;24.20;56.60;;;;;;5021856;28;20052;-69
2021/03/30 11:44:45;;;;;;;14.88;11.73;;;24.10;55.50;;;;;;5024575;28;20515;-68
2021/03/30 11:47:12;;;;;;;13.48;12.18;;;24.40;55.90;;;;;;5036707;28;20794;-69
2021/03/30 11:49:40;;;;;;;15.32;13.88;;;24.80;56.00;;;;;;5024044;28;20058;-69
2021/03/30 11:52:08;;;;;;;13.35;12.00;;;25.10;55.70;;;;;;5025198;28;20104;-68
2021/03/30 11:54:36;;;;;;;13.65;12.43;;;25.40;55.10;;;;;;5021159;28;20053;-68
2021/03/30 11:57:04;;;;;;;13.65;12.30;;;25.60;54.80;;;;;;5029569;28;20041;-68
2021/03/30 11:59:31;;;;;;;13.85;12.07;;;25.60;54.60;;;;;;5026293;28;20552;-67
2021/03/30 12:01:58;;;;;;;13.68;11.88;;;26.00;54.20;;;;;;5019890;28;20053;-67
2021/03/30 12:04:25;;;;;;;15.05;13.27;;;26.20;54.00;;;;;;5027103;28;20038;-70
2021/03/30 12:06:53;;;;;;;13.20;11.80;;;26.20;53.80;;;;;;5026103;28;20049;-68
2021/03/30 12:09:20;;;;;;;13.30;12.02;;;26.30;54.00;;;;;;5031162;28;20103;-67
2021/03/30 12:11:47;;;;;;;13.38;12.13;;;26.60;54.00;;;;;;5032925;28;20453;-68
2021/03/30 12:14:16;;;;;;;13.40;12.05;;;26.40;53.10;;;;;;5025037;28;20082;-68
2021/03/30 12:16:46;;;;;;;13.77;12.15;;;26.80;53.30;;;;;;5032458;28;20050;-68
2021/03/30 12:19:15;;;;;;;13.02;11.73;;;26.90;52.70;;;;;;5032595;28;20064;-68
2021/03/30 12:21:44;;;;;;;13.63;12.10;;;27.40;52.70;;;;;;5036089;28;20076;-68
2021/03/30 12:24:13;;;;;;;13.30;11.98;;;27.80;52.50;;;;;;5032386;28;20104;-68
2021/03/30 12:26:40;;;;;;;13.63;12.32;;;28.30;52.10;;;;;;5026753;28;20073;-71
2021/03/30 12:29:08;;;;;;;13.60;12.20;;;28.50;51.00;;;;;;5030391;28;20183;-68
2021/03/30 12:31:35;;;;;;;19.00;13.05;;;28.60;51.00;;;;;;5029794;28;20125;-68
2021/03/30 12:34:03;;;;;;;14.60;11.73;;;29.10;51.10;;;;;;5029880;28;20045;-68
2021/03/30 12:36:30;;;;;;;13.73;12.50;;;29.50;50.50;;;;;;5022555;28;20117;-69
2021/03/30 12:38:57;;;;;;;12.68;11.52;;;29.60;49.60;;;;;;5016767;28;20128;-68
2021/03/30 12:41:25;;;;;;;12.95;11.80;;;29.90;49.60;;;;;;5015996;28;20053;-68
2021/03/30 12:43:52;;;;;;;13.00;11.90;;;30.20;49.10;;;;;;5016840;28;20508;-68
2021/03/30 12:46:19;;;;;;;12.90;11.63;;;30.60;49.10;;;;;;5017114;28;20492;-68
2021/03/30 12:48:45;;;;;;;12.50;11.40;;;31.00;48.90;;;;;;5021741;28;20057;-68
2021/03/30 12:51:13;;;;;;;13.90;12.38;;;31.40;48.40;;;;;;5015815;28;20118;-69
2021/03/30 12:53:40;;;;;;;13.30;12.13;;;31.80;48.00;;;;;;5022888;28;20051;-70
2021/03/30 12:56:08;;;;;;;19.02;16.90;;;32.00;47.90;;;;;;5020216;28;20061;-69
2021/03/30 12:58:35;;;;;;;16.13;14.50;;;32.60;46.90;;;;;;5027031;28;20507;-69
2021/03/30 13:01:02;;;;;;;16.65;15.00;;;32.50;46.80;;;;;;5016128;28;20057;-68
2021/03/30 13:03:47;;;;;;;12.98;11.82;;;32.90;46.90;;;;;;5033263;28;20064;-68
2021/03/30 13:06:14;;;;;;;13.48;12.25;;;33.50;45.70;;;;;;5035864;28;20120;-68
2021/03/30 13:08:42;;;;;;;13.45;12.23;;;33.00;45.50;;;;;;5040316;28;20115;-69
2021/03/30 13:11:09;;;;;;;12.90;11.60;;;32.90;45.60;;;;;;5038645;28;20046;-69